Time;durP1;ratioP1;P1;durP2;ratioP2;P2;SDS_P1;SDS_P2;PMS_P1;PMS_P2;Temp;Humidity;BMP_temperature;BMP_pressure;BME280_temperature;BME280_humidity;BME280_pressure;Samples;Min_cycle;Max_cycle;Signal;HPM_P1;HPM_P2
2023/07/05 00:01:48;;;;;;;11.82;8.45;;;;;;;18.70;100.00;100334.69;5587277;31;33588;-70
2023/07/05 00:04:51;;;;;;;14.23;8.38;;;;;;;18.62;100.00;100333.13;5587113;31;33681;-70
2023/07/05 00:07:53;;;;;;;14.45;8.05;;;;;;;18.56;100.00;100336.69;5586982;31;33900;-70
2023/07/05 00:11:04;;;;;;;14.73;7.95;;;;;;;18.53;100.00;100332.59;5586919;31;33806;-70
2023/07/05 00:14:07;;;;;;;15.82;8.90;;;;;;;18.55;100.00;100340.41;5586835;31;33881;-70
2023/07/05 00:17:10;;;;;;;14.50;9.40;;;;;;;18.56;100.00;100334.81;5586411;31;33881;-69
2023/07/05 00:20:13;;;;;;;13.35;9.55;;;;;;;18.51;100.00;100342.69;5586959;31;34484;-69
2023/07/05 00:23:15;;;;;;;11.65;9.15;;;;;;;18.50;100.00;100348.25;5587263;31;33930;-69
2023/07/05 00:26:18;;;;;;;13.38;9.48;;;;;;;18.46;100.00;100334.47;5586803;31;34228;-70
2023/07/05 00:29:21;;;;;;;13.77;9.38;;;;;;;18.38;100.00;100334.75;5586907;31;34102;-70
2023/07/05 00:32:24;;;;;;;16.05;8.80;;;;;;;18.36;100.00;100327.94;5586715;31;33923;-70
2023/07/05 00:35:27;;;;;;;13.93;8.20;;;;;;;18.47;100.00;100327.22;5586429;31;33658;-69
2023/07/05 00:38:30;;;;;;;11.12;8.80;;;;;;;18.33;100.00;100326.53;5586384;31;33639;-70
2023/07/05 00:41:33;;;;;;;14.65;9.00;;;;;;;18.26;100.00;100323.06;5586588;31;34589;-70
2023/07/05 00:44:35;;;;;;;15.10;8.95;;;;;;;18.23;100.00;100326.19;5585348;31;34473;-70
2023/07/05 00:47:42;;;;;;;14.65;9.27;;;;;;;18.16;100.00;100334.28;5586307;31;34295;-70
2023/07/05 00:50:50;;;;;;;13.45;8.60;;;;;;;18.08;100.00;100326.50;5585397;31;33618;-71
2023/07/05 00:53:58;;;;;;;16.73;9.55;;;;;;;18.11;100.00;100328.75;5586516;31;33789;-69
2023/07/05 00:57:17;;;;;;;11.90;8.75;;;;;;;18.03;100.00;100325.50;5586313;31;34817;-70
2023/07/05 01:00:22;;;;;;;14.27;8.70;;;;;;;18.06;100.00;100327.75;5586412;31;34571;-70
2023/07/05 01:03:26;;;;;;;15.82;8.70;;;;;;;18.00;100.00;100323.28;5586449;31;33841;-69
2023/07/05 01:06:29;;;;;;;19.00;9.98;;;;;;;18.00;100.00;100318.72;5586532;31;33868;-70
2023/07/05 01:09:32;;;;;;;16.05;9.55;;;;;;;17.97;100.00;100318.31;5586596;31;33742;-69
2023/07/05 01:12:42;;;;;;;17.35;8.88;;;;;;;17.94;100.00;100322.28;5586375;31;34452;-70
2023/07/05 01:15:51;;;;;;;12.52;9.30;;;;;;;17.87;100.00;100323.34;5586487;31;34562;-70
2023/07/05 01:19:27;;;;;;;15.77;9.18;;;;;;;17.81;100.00;100325.84;5586199;31;33682;-70
2023/07/05 01:23:03;;;;;;;14.95;9.00;;;;;;;17.78;100.00;100322.78;5574025;31;33625;-70
2023/07/05 01:26:42;;;;;;;13.30;9.57;;;;;;;17.69;100.00;100326.75;5585910;31;33833;-69
2023/07/05 01:30:11;;;;;;;15.65;8.98;;;;;;;17.61;100.00;100324.34;5583712;31;34826;-70
2023/07/05 01:33:27;;;;;;;13.20;9.02;;;;;;;17.51;100.00;100314.03;5586011;31;33784;-71
2023/07/05 01:36:31;;;;;;;15.20;9.45;;;;;;;17.46;100.00;100311.19;5585651;31;33977;-70
2023/07/05 01:39:35;;;;;;;18.02;9.20;;;;;;;17.43;100.00;100303.53;5585760;31;34466;-71
2023/07/05 01:42:39;;;;;;;16.52;9.30;;;;;;;17.40;100.00;100309.34;5585749;31;33713;-71
2023/07/05 01:46:06;;;;;;;13.43;8.95;;;;;;;17.41;100.00;100308.31;5584787;31;34341;-70
2023/07/05 01:49:14;;;;;;;14.25;9.05;;;;;;;17.35;100.00;100317.22;5584679;31;33602;-70
2023/07/05 01:52:38;;;;;;;13.75;8.93;;;;;;;17.32;100.00;100314.97;5585563;31;33771;-71
2023/07/05 01:56:02;;;;;;;15.95;9.10;;;;;;;17.29;100.00;100310.84;5586032;31;33900;-71
2023/07/05 01:59:08;;;;;;;14.50;8.95;;;;;;;17.26;100.00;100313.94;5588235;31;34527;-71
2023/07/05 02:02:14;;;;;;;15.95;8.77;;;;;;;17.22;100.00;100318.09;5588154;31;34127;-71
2023/07/05 02:05:19;;;;;;;14.00;8.25;;;;;;;17.19;100.00;100309.62;5588181;31;34384;-70
2023/07/05 02:08:27;;;;;;;15.25;8.52;;;;;;;17.17;100.00;100314.41;5588457;31;33849;-71
2023/07/05 02:11:30;;;;;;;14.48;8.75;;;;;;;17.17;100.00;100317.91;5588118;31;33798;-71
2023/07/05 02:14:33;;;;;;;13.88;8.43;;;;;;;17.20;100.00;100311.28;5588044;31;34604;-69
2023/07/05 02:17:36;;;;;;;14.48;8.93;;;;;;;17.18;100.00;100316.06;5588071;31;33850;-69
2023/07/05 02:20:41;;;;;;;15.10;8.85;;;;;;;17.16;100.00;100316.25;5588361;31;33819;-69
2023/07/05 02:23:44;;;;;;;15.43;8.85;;;;;;;17.14;100.00;100317.50;5588005;31;33777;-69
2023/07/05 02:26:48;;;;;;;11.82;8.77;;;;;;;17.09;100.00;100314.66;5588021;31;33620;-69
2023/07/05 02:29:50;;;;;;;12.68;8.38;;;;;;;17.06;100.00;100317.72;5587862;31;33812;-70
2023/07/05 02:32:53;;;;;;;18.77;12.63;;;;;;;17.05;100.00;100326.81;5587782;31;34876;-69
2023/07/05 02:35:56;;;;;;;18.58;11.77;;;;;;;17.09;100.00;100322.69;5587680;31;34522;-70
2023/07/05 02:38:58;;;;;;;21.37;12.65;;;;;;;17.11;100.00;100320.59;5587904;31;33842;-69
2023/07/05 02:42:02;;;;;;;19.02;13.02;;;;;;;17.08;100.00;100318.34;5588072;31;33739;-70
2023/07/05 02:45:05;;;;;;;18.55;11.77;;;;;;;17.05;100.00;100313.41;5587799;31;33990;-69
2023/07/05 02:48:11;;;;;;;20.05;12.45;;;;;;;17.04;100.00;100307.22;5588077;31;34378;-69
2023/07/05 02:51:13;;;;;;;15.88;10.57;;;;;;;17.06;100.00;100304.34;5587634;31;34436;-69
2023/07/05 02:54:16;;;;;;;23.48;12.37;;;;;;;17.12;100.00;100311.53;5587908;31;34245;-69
2023/07/05 02:57:19;;;;;;;17.55;11.32;;;;;;;17.06;100.00;100301.66;5587639;31;33848;-69
2023/07/05 03:00:22;;;;;;;16.08;11.55;;;;;;;17.01;100.00;100312.19;5587658;31;34385;-69
2023/07/05 03:03:26;;;;;;;17.83;11.68;;;;;;;16.99;100.00;100317.78;5587620;31;33835;-69
2023/07/05 03:06:28;;;;;;;17.60;11.43;;;;;;;17.01;100.00;100312.19;5587971;31;33756;-69
2023/07/05 03:09:31;;;;;;;17.02;11.70;;;;;;;17.03;100.00;100308.28;5587243;31;33707;-69
2023/07/05 03:12:34;;;;;;;17.73;11.55;;;;;;;17.00;100.00;100318.56;5587557;31;34900;-69
2023/07/05 03:15:37;;;;;;;18.08;11.88;;;;;;;17.01;100.00;100309.50;5587574;31;33791;-69
2023/07/05 03:18:40;;;;;;;18.17;12.00;;;;;;;17.07;100.00;100305.97;5587503;31;34068;-69
2023/07/05 03:21:43;;;;;;;17.52;12.30;;;;;;;17.08;100.00;100308.47;5587438;31;33988;-69
2023/07/05 03:24:46;;;;;;;20.20;12.65;;;;;;;17.12;100.00;100314.22;5587281;31;33882;-71
2023/07/05 03:27:48;;;;;;;21.62;13.95;;;;;;;17.13;100.00;100307.81;5587413;31;33722;-69
2023/07/05 03:30:55;;;;;;;23.17;14.35;;;;;;;17.13;100.00;100310.50;5587836;31;33870;-69
2023/07/05 03:33:58;;;;;;;22.52;15.13;;;;;;;17.21;100.00;100311.09;5587504;31;33792;-69
2023/07/05 03:37:01;;;;;;;21.95;13.13;;;;;;;17.24;100.00;100307.97;5587589;31;33742;-69
2023/07/05 03:40:04;;;;;;;19.80;12.77;;;;;;;17.33;100.00;100314.72;5587212;31;33957;-69
2023/07/05 03:43:07;;;;;;;16.17;10.82;;;;;;;17.36;100.00;100314.31;5587325;31;33573;-69
2023/07/05 03:46:12;;;;;;;19.40;10.40;;;;;;;17.49;100.00;100313.44;5587277;31;33795;-69
2023/07/05 03:49:15;;;;;;;18.27;10.02;;;;;;;17.62;100.00;100318.75;5586818;31;33593;-69
2023/07/05 03:52:18;;;;;;;15.13;9.50;;;;;;;17.67;100.00;100318.91;5587146;31;33842;-70
2023/07/05 03:55:21;;;;;;;15.88;9.25;;;;;;;17.74;100.00;100318.87;5586250;31;33615;-69
2023/07/05 03:58:23;;;;;;;15.32;9.75;;;;;;;17.78;100.00;100320.09;5586950;31;33680;-70
2023/07/05 04:01:28;;;;;;;13.05;9.23;;;;;;;17.85;100.00;100315.53;5586920;31;33764;-70
2023/07/05 04:04:31;;;;;;;18.15;9.30;;;;;;;17.91;100.00;100324.56;5586989;31;34017;-69
2023/07/05 04:07:34;;;;;;;12.13;8.95;;;;;;;17.97;100.00;100315.63;5587302;31;34753;-69
2023/07/05 04:10:37;;;;;;;14.38;9.60;;;;;;;18.03;100.00;100309.41;5587148;31;35325;-70
2023/07/05 04:13:40;;;;;;;16.45;9.60;;;;;;;18.11;100.00;100304.59;5586722;31;33792;-70
2023/07/05 04:16:43;;;;;;;17.85;9.70;;;;;;;18.17;100.00;100305.56;5586931;31;34386;-70
2023/07/05 04:19:46;;;;;;;15.23;9.55;;;;;;;18.27;100.00;100305.09;5585788;31;33933;-70
2023/07/05 04:22:48;;;;;;;17.77;10.80;;;;;;;18.36;100.00;100309.97;5578451;31;33794;-70
2023/07/05 04:25:58;;;;;;;15.65;9.77;;;;;;;18.47;100.00;100316.47;5585756;31;33773;-70
2023/07/05 04:29:01;;;;;;;50.67;11.02;;;;;;;18.55;100.00;100313.53;5570490;31;33882;-70
2023/07/05 04:32:04;;;;;;;14.30;10.30;;;;;;;18.58;100.00;100322.00;5573890;31;33685;-70
2023/07/05 04:35:07;;;;;;;17.92;10.13;;;;;;;18.75;100.00;100324.09;5567452;32;33857;-70
2023/07/05 04:38:10;;;;;;;15.07;10.57;;;;;;;18.82;100.00;100333.75;5566838;32;34179;-70
2023/07/05 04:41:13;;;;;;;15.63;11.00;;;;;;;19.03;100.00;100325.22;5566837;32;34559;-70
2023/07/05 04:44:15;;;;;;;19.73;10.93;;;;;;;19.08;100.00;100330.75;5566620;32;34485;-70
2023/07/05 04:47:18;;;;;;;21.27;10.00;;;;;;;19.24;100.00;100337.41;5566935;32;33734;-70
2023/07/05 04:50:21;;;;;;;17.85;10.50;;;;;;;19.34;100.00;100342.25;5566817;32;33733;-70
2023/07/05 04:53:26;;;;;;;16.65;9.70;;;;;;;19.36;100.00;100338.31;5566601;31;33812;-70
2023/07/05 04:56:28;;;;;;;15.32;10.10;;;;;;;19.41;100.00;100337.62;5566001;32;33160;-70
2023/07/05 04:59:31;;;;;;;15.30;10.20;;;;;;;19.49;100.00;100337.34;5565772;32;34109;-71
2023/07/05 05:02:34;;;;;;;16.98;10.90;;;;;;;19.56;100.00;100337.25;5578319;31;34514;-70
2023/07/05 05:05:37;;;;;;;19.37;10.65;;;;;;;19.58;100.00;100338.66;5585298;31;33408;-70
2023/07/05 05:08:40;;;;;;;17.02;10.98;;;;;;;19.65;100.00;100328.66;5583174;31;32702;-70
2023/07/05 05:11:43;;;;;;;20.35;11.73;;;;;;;19.68;100.00;100340.81;5585711;31;34026;-70
2023/07/05 05:14:45;;;;;;;18.65;12.40;;;;;;;19.61;100.00;100343.56;5574983;31;33839;-71
2023/07/05 05:17:48;;;;;;;23.52;12.20;;;;;;;19.71;100.00;100343.03;5565997;32;33829;-70
2023/07/05 05:20:51;;;;;;;19.35;12.98;;;;;;;19.92;100.00;100332.59;5566257;32;34680;-70
2023/07/05 05:23:54;;;;;;;22.60;13.50;;;;;;;20.04;100.00;100340.72;5566138;31;33400;-70
2023/07/05 05:26:57;;;;;;;22.35;14.77;;;;;;;20.16;100.00;100351.50;5566142;32;33710;-70
2023/07/05 05:30:00;;;;;;;24.02;13.88;;;;;;;20.16;100.00;100338.03;5566063;32;34505;-70
2023/07/05 05:33:03;;;;;;;21.48;12.68;;;;;;;20.18;100.00;100350.22;5568837;31;34611;-70
2023/07/05 05:36:06;;;;;;;23.10;13.25;;;;;;;20.35;100.00;100345.81;5577036;31;33661;-70
2023/07/05 05:39:09;;;;;;;19.77;12.50;;;;;;;20.46;100.00;100343.38;5584670;31;34372;-70
2023/07/05 05:42:12;;;;;;;25.65;13.90;;;;;;;20.63;100.00;100341.63;5571431;31;33906;-71
2023/07/05 05:45:15;;;;;;;17.90;12.18;;;;;;;20.78;100.00;100341.97;5587371;31;33806;-70
2023/07/05 05:48:18;;;;;;;20.65;14.20;;;;;;;20.87;100.00;100345.13;5588346;31;33988;-70
2023/07/05 05:51:21;;;;;;;20.33;12.60;;;;;;;20.91;100.00;100333.66;5587044;31;34508;-70
2023/07/05 05:54:23;;;;;;;21.02;12.93;;;;;;;21.00;100.00;100331.41;5588214;31;33851;-71
2023/07/05 05:57:26;;;;;;;19.75;12.88;;;;;;;21.15;100.00;100334.47;5580946;31;34481;-71
2023/07/05 06:00:29;;;;;;;21.15;12.93;;;;;;;21.31;100.00;100333.72;5584078;31;34635;-71
2023/07/05 06:03:32;;;;;;;17.73;12.15;;;;;;;21.30;100.00;100332.06;5586700;31;34353;-71
2023/07/05 06:06:35;;;;;;;18.17;12.60;;;;;;;21.40;100.00;100340.38;5586117;31;35129;-71
2023/07/05 06:09:48;;;;;;;22.20;11.45;;;;;;;21.58;100.00;100333.97;5580355;31;34012;-72
2023/07/05 06:12:51;;;;;;;18.35;11.82;;;;;;;21.61;100.00;100326.22;5586100;31;34548;-72
2023/07/05 06:16:00;;;;;;;18.35;11.82;;;;;;;21.72;100.00;100331.81;5576485;31;35025;-72
2023/07/05 06:19:06;;;;;;;17.55;11.20;;;;;;;21.88;100.00;100331.03;5574532;31;34043;-71
2023/07/05 06:22:09;;;;;;;18.52;11.73;;;;;;;22.09;100.00;100335.75;5589046;31;33968;-72
2023/07/05 06:25:12;;;;;;;23.92;11.25;;;;;;;22.21;100.00;100323.00;5590029;31;34771;-72
2023/07/05 06:28:16;;;;;;;17.15;9.60;;;;;;;22.28;100.00;100317.41;5575610;31;33713;-71
2023/07/05 06:31:19;;;;;;;14.73;10.13;;;;;;;22.48;100.00;100317.72;5568891;31;33859;-72
2023/07/05 06:34:24;;;;;;;21.52;10.68;;;;;;;22.55;100.00;100321.09;5578118;31;33846;-71
2023/07/05 06:37:27;;;;;;;18.37;10.20;;;;;;;22.72;100.00;100319.22;5587322;31;34910;-72
2023/07/05 06:40:30;;;;;;;18.08;9.48;;;;;;;22.71;100.00;100317.56;5587200;31;33962;-72
2023/07/05 06:43:32;;;;;;;19.70;11.12;;;;;;;22.92;100.00;100315.97;5586088;31;33841;-72
2023/07/05 06:46:35;;;;;;;17.67;11.77;;;;;;;23.00;100.00;100306.59;5586698;31;34522;-71
2023/07/05 06:49:38;;;;;;;16.77;11.27;;;;;;;23.08;100.00;100319.72;5586413;31;33673;-72
2023/07/05 06:52:45;;;;;;;18.70;10.98;;;;;;;23.02;100.00;100308.00;5586768;31;34505;-73
2023/07/05 06:55:49;;;;;;;16.95;11.98;;;;;;;23.38;100.00;100312.75;5586598;31;34037;-71
2023/07/05 06:58:52;;;;;;;15.85;10.27;;;;;;;23.55;100.00;100320.03;5585369;31;32028;-71
2023/07/05 07:01:55;;;;;;;17.23;11.05;;;;;;;23.62;100.00;100313.34;5586502;31;33926;-71
2023/07/05 07:04:58;;;;;;;15.63;10.85;;;;;;;23.86;100.00;100302.19;5573094;31;34582;-72
2023/07/05 07:08:02;;;;;;;28.73;10.68;;;;;;;24.07;100.00;100302.09;5586181;31;33796;-72
2023/07/05 07:11:06;;;;;;;15.82;9.48;;;;;;;24.00;100.00;100306.13;5570396;31;34863;-72
2023/07/05 07:14:09;;;;;;;13.68;7.82;;;;;;;24.18;100.00;100305.75;5570410;31;33832;-72
2023/07/05 07:17:12;;;;;;;12.23;7.50;;;;;;;24.50;100.00;100305.72;5586808;31;33889;-72
2023/07/05 07:20:15;;;;;;;13.13;7.40;;;;;;;24.83;100.00;100302.69;5586058;31;33688;-72
2023/07/05 07:23:17;;;;;;;16.02;8.10;;;;;;;25.08;100.00;100300.09;5578283;31;34589;-72
2023/07/05 07:26:23;;;;;;;14.18;8.00;;;;;;;25.09;100.00;100304.47;5586495;31;33855;-72
2023/07/05 07:29:26;;;;;;;14.55;8.35;;;;;;;25.47;100.00;100307.84;5573098;31;34035;-72
2023/07/05 07:32:28;;;;;;;15.00;7.75;;;;;;;25.70;100.00;100309.31;5588974;31;34363;-72
2023/07/05 07:35:31;;;;;;;9.15;6.55;;;;;;;26.03;100.00;100307.97;5569067;31;34468;-73
2023/07/05 07:38:34;;;;;;;11.55;6.78;;;;;;;25.72;99.63;100305.22;5567598;31;35104;-72
2023/07/05 07:41:38;;;;;;;16.35;7.50;;;;;;;26.66;97.22;100307.44;5567599;32;33770;-72
2023/07/05 07:44:40;;;;;;;11.98;6.97;;;;;;;27.57;82.37;100300.84;5567093;32;34061;-72
2023/07/05 07:47:43;;;;;;;11.35;6.75;;;;;;;28.14;78.26;100305.66;5567495;32;35054;-72
2023/07/05 07:50:50;;;;;;;17.65;7.25;;;;;;;28.51;70.75;100308.56;5562597;31;115364;-71
2023/07/05 07:53:54;;;;;;;13.13;6.62;;;;;;;28.71;67.41;100309.50;5569456;31;33882;-74
2023/07/05 07:56:57;;;;;;;13.15;6.22;;;;;;;28.94;65.32;100301.34;5566966;31;34799;-72
2023/07/05 08:00:01;;;;;;;13.75;6.28;;;;;;;29.37;62.72;100310.38;5569992;31;34022;-72
2023/07/05 08:03:14;;;;;;;10.57;5.90;;;;;;;30.01;62.34;100305.37;5576674;31;33882;-72
2023/07/05 08:06:18;;;;;;;10.80;6.50;;;;;;;30.79;57.79;100307.31;5567472;31;33776;-72
2023/07/05 08:09:27;;;;;;;9.65;5.78;;;;;;;30.30;55.86;100306.00;5567525;31;34752;-72
2023/07/05 08:12:30;;;;;;;11.15;5.30;;;;;;;31.69;51.96;100310.09;5584021;31;34052;-71
2023/07/05 08:15:32;;;;;;;7.62;5.30;;;;;;;31.73;50.85;100304.81;5574136;31;33843;-72
2023/07/05 08:18:35;;;;;;;13.48;4.97;;;;;;;31.36;49.60;100301.22;5575196;31;33819;-72
2023/07/05 08:21:38;;;;;;;11.15;5.53;;;;;;;31.38;50.98;100307.19;5591396;31;33819;-71
2023/07/05 08:24:41;;;;;;;13.32;5.80;;;;;;;32.03;47.58;100303.28;5582278;31;33379;-70
2023/07/05 08:27:44;;;;;;;27.55;6.18;;;;;;;32.70;46.56;100302.09;5571601;31;33865;-70
2023/07/05 08:31:01;;;;;;;13.48;5.53;;;;;;;33.24;45.46;100297.31;5565782;32;34431;-72
2023/07/05 08:34:04;;;;;;;11.43;6.05;;;;;;;32.95;47.00;100286.84;5566766;32;33957;-72
2023/07/05 08:37:07;;;;;;;10.80;6.18;;;;;;;33.11;46.68;100289.97;5566714;32;34677;-72
2023/07/05 08:40:11;;;;;;;11.82;6.62;;;;;;;33.30;43.93;100292.47;5566077;32;34049;-73
2023/07/05 08:43:36;;;;;;;18.80;6.80;;;;;;;32.69;47.11;100294.16;5569957;31;34115;-71
2023/07/05 08:46:40;;;;;;;14.50;5.87;;;;;;;33.29;45.96;100291.66;5567297;31;33869;-72
2023/07/05 08:50:04;;;;;;;8.65;5.43;;;;;;;34.73;42.58;100296.56;5566815;31;35179;-71
2023/07/05 08:53:27;;;;;;;11.12;5.82;;;;;;;34.15;42.69;100297.16;5583417;31;34476;-72
2023/07/05 08:56:36;;;;;;;9.88;5.50;;;;;;;34.86;41.54;100297.47;5585174;31;33709;-71
2023/07/05 08:59:52;;;;;;;8.70;5.37;;;;;;;35.05;41.41;100297.09;5580379;31;34195;-72
2023/07/05 09:02:56;;;;;;;11.50;5.60;;;;;;;34.95;39.20;100294.69;5584794;31;33794;-72
2023/07/05 09:06:04;;;;;;;10.77;5.75;;;;;;;34.78;39.04;100288.13;5583103;31;33858;-72
2023/07/05 09:09:22;;;;;;;10.20;5.70;;;;;;;35.19;39.06;100290.22;5585711;31;33582;-71
2023/07/05 09:12:54;;;;;;;10.40;5.47;;;;;;;33.48;42.08;100281.16;5584862;31;34089;-71
2023/07/05 09:16:22;;;;;;;11.52;6.15;;;;;;;33.65;43.30;100274.84;5569705;31;33850;-72
2023/07/05 09:19:35;;;;;;;;;;;;;;;33.59;42.00;100271.47;5585968;31;33881;-70
2023/07/05 09:22:40;;;;;;;9.48;6.47;;;;;;;31.25;46.82;100275.16;5583571;31;34731;-72
2023/07/05 09:25:50;;;;;;;14.18;6.10;;;;;;;30.53;48.75;100279.59;5584789;31;33582;-71
2023/07/05 09:29:27;;;;;;;17.12;6.22;;;;;;;30.88;49.81;100270.69;5574697;31;33642;-72
2023/07/05 09:32:36;;;;;;;8.32;5.37;;;;;;;31.30;47.44;100264.06;5565638;32;33911;-72
2023/07/05 09:35:43;;;;;;;10.15;5.68;;;;;;;34.07;42.80;100275.16;5565802;31;33833;-73
2023/07/05 09:38:52;;;;;;;10.32;5.78;;;;;;;33.75;40.27;100266.28;5587261;31;34473;-72
2023/07/05 09:41:59;;;;;;;10.27;5.70;;;;;;;35.09;38.32;100276.78;5580874;31;33927;-68
2023/07/05 09:45:03;;;;;;;12.82;5.87;;;;;;;34.77;38.91;100272.72;5579125;31;33900;-67
2023/07/05 09:48:11;;;;;;;18.60;6.57;;;;;;;35.21;38.79;100268.59;5591147;31;33789;-70
2023/07/05 09:51:15;;;;;;;50.05;8.07;;;;;;;34.87;39.16;100264.06;5572625;31;34012;-71
2023/07/05 09:54:31;;;;;;;18.50;5.68;;;;;;;32.87;43.95;100251.91;5567042;31;33929;-73
2023/07/05 09:57:36;;;;;;;27.08;6.53;;;;;;;32.98;44.08;100253.22;5565232;32;33709;-70
2023/07/05 10:00:39;;;;;;;12.45;6.03;;;;;;;32.16;46.53;100253.00;5565667;32;33811;-71
2023/07/05 10:03:55;;;;;;;10.65;6.62;;;;;;;31.28;48.07;100252.59;5565242;32;35345;-71
2023/07/05 10:07:03;;;;;;;10.65;6.30;;;;;;;31.54;47.26;100241.06;5564281;32;34535;-70
2023/07/05 10:10:10;;;;;;;10.07;5.65;;;;;;;32.64;44.52;100242.12;5565647;32;33934;-71
2023/07/05 10:13:34;;;;;;;11.98;5.93;;;;;;;33.93;41.75;100245.88;5564959;32;33934;-72
2023/07/05 10:16:44;;;;;;;8.70;5.78;;;;;;;35.80;38.82;100251.13;5564325;32;35021;-71
2023/07/05 10:19:49;;;;;;;14.27;5.60;;;;;;;36.22;37.00;100243.56;5567986;32;33949;-71
2023/07/05 10:23:14;;;;;;;8.60;5.72;;;;;;;35.78;36.98;100248.69;5567217;32;33945;-70
2023/07/05 10:26:17;;;;;;;27.25;6.30;;;;;;;33.16;40.30;100237.63;5567857;32;33756;-70
2023/07/05 10:29:22;;;;;;;10.48;5.05;;;;;;;32.31;43.81;100233.37;5567232;32;33795;-70
2023/07/05 10:32:25;;;;;;;12.68;5.95;;;;;;;32.14;44.28;100228.62;5567991;32;33837;-71
2023/07/05 10:35:28;;;;;;;9.23;5.20;;;;;;;32.44;44.42;100226.97;5567797;32;34052;-71
2023/07/05 10:38:33;;;;;;;13.18;6.03;;;;;;;34.72;40.13;100237.06;5568062;32;34915;-71
2023/07/05 10:41:37;;;;;;;13.98;5.70;;;;;;;35.48;38.50;100231.41;5567975;32;34493;-70
2023/07/05 10:44:40;;;;;;;10.48;5.35;;;;;;;33.69;39.08;100231.03;5569369;31;33706;-70
2023/07/05 10:47:47;;;;;;;12.52;5.62;;;;;;;31.56;44.29;100225.94;5573608;31;33642;-70
2023/07/05 10:50:49;;;;;;;10.00;6.00;;;;;;;32.11;45.75;100220.19;5587054;31;34413;-71
2023/07/05 10:54:04;;;;;;;10.02;5.65;;;;;;;34.32;38.71;100227.50;5587240;31;33743;-72
2023/07/05 10:57:22;;;;;;;9.70;5.55;;;;;;;35.08;36.66;100213.69;5572955;31;34366;-71
2023/07/05 11:00:39;;;;;;;11.20;5.60;;;;;;;35.49;36.45;100218.41;5587177;31;33961;-70
2023/07/05 11:04:06;;;;;;;9.67;5.60;;;;;;;34.86;38.57;100218.34;5587248;31;33887;-72
2023/07/05 11:07:12;;;;;;;10.77;5.53;;;;;;;33.52;39.14;100216.09;5584360;31;33826;-69
2023/07/05 11:10:15;;;;;;;12.57;5.80;;;;;;;33.47;38.69;100204.47;5575730;31;34919;-72
2023/07/05 11:13:19;;;;;;;10.35;5.07;;;;;;;35.14;36.81;100204.88;5587426;31;33927;-70
2023/07/05 11:16:25;;;;;;;12.18;5.40;;;;;;;37.18;32.55;100204.06;5587174;31;33929;-71
2023/07/05 11:19:30;;;;;;;7.93;4.60;;;;;;;37.98;32.18;100195.69;5586340;31;34621;-70
2023/07/05 11:22:51;;;;;;;8.27;4.82;;;;;;;37.88;30.96;100192.63;5587223;31;33896;-70
2023/07/05 11:25:54;;;;;;;11.05;4.62;;;;;;;38.94;31.64;100189.78;5587418;31;34425;-70
2023/07/05 11:28:57;;;;;;;8.55;5.28;;;;;;;38.64;30.84;100187.50;5586638;31;33325;-69
2023/07/05 11:32:08;;;;;;;10.45;5.25;;;;;;;35.96;34.67;100181.12;5587649;31;33455;-71
2023/07/05 11:35:11;;;;;;;7.90;5.20;;;;;;;34.99;34.16;100179.84;5605923;31;33693;-69
2023/07/05 11:38:35;;;;;;;8.25;5.05;;;;;;;35.31;36.35;100176.37;5606850;31;34654;-71
2023/07/05 11:41:40;;;;;;;7.97;5.20;;;;;;;38.22;30.89;100167.03;5607094;31;33931;-69
2023/07/05 11:45:10;;;;;;;8.48;5.12;;;;;;;36.32;33.55;100169.34;5608171;31;33475;-70
2023/07/05 11:48:48;;;;;;;8.32;5.10;;;;;;;34.81;36.68;100174.44;5606610;31;35132;-70
2023/07/05 11:51:55;;;;;;;8.02;4.47;;;;;;;35.55;34.07;100161.88;5525922;32;34554;-72
2023/07/05 11:55:27;;;;;;;10.30;4.65;;;;;;;39.54;27.95;100166.91;5513564;32;33739;-70
2023/07/05 11:58:35;;;;;;;8.60;4.90;;;;;;;41.86;26.08;100164.50;5526020;32;34177;-71
2023/07/05 12:01:39;;;;;;;8.07;4.13;;;;;;;41.57;24.74;100157.78;5519564;32;34063;-71
2023/07/05 12:04:42;;;;;;;6.65;4.68;;;;;;;39.06;28.67;100146.09;5506867;32;33705;-71
2023/07/05 12:07:56;;;;;;;7.68;4.45;;;;;;;41.25;24.92;100144.69;5494710;32;33540;-72
2023/07/05 12:10:59;;;;;;;6.78;4.37;;;;;;;42.04;24.28;100134.78;5504718;32;34458;-70
2023/07/05 12:14:10;;;;;;;6.28;4.55;;;;;;;40.55;26.48;100126.59;5498538;32;33690;-71
2023/07/05 12:17:26;;;;;;;8.25;4.55;;;;;;;39.79;25.89;100131.31;5488432;32;33930;-73
2023/07/05 12:20:32;;;;;;;8.60;4.32;;;;;;;40.31;25.26;100130.62;5498688;32;32637;-70
2023/07/05 12:23:37;;;;;;;9.75;4.60;;;;;;;41.30;25.19;100117.28;5494243;32;34020;-73
2023/07/05 12:26:40;;;;;;;11.00;4.57;;;;;;;43.05;22.16;100115.53;5573988;31;33748;-73
2023/07/05 12:29:43;;;;;;;7.20;4.55;;;;;;;40.63;24.90;100103.28;5586417;31;33930;-72
2023/07/05 12:32:54;;;;;;;8.30;4.18;;;;;;;42.60;22.28;100100.16;5583025;31;33985;-70
2023/07/05 12:36:15;;;;;;;7.95;4.47;;;;;;;43.65;22.42;100106.56;5580373;31;34563;-70
2023/07/05 12:39:18;;;;;;;6.03;4.22;;;;;;;43.22;23.21;100100.88;5582201;31;33639;-70
2023/07/05 12:42:21;;;;;;;6.40;4.55;;;;;;;43.50;23.11;100094.56;5585171;31;33901;-72
2023/07/05 12:45:32;;;;;;;11.05;4.95;;;;;;;42.82;24.14;100073.16;5584730;31;32326;-72
2023/07/05 12:48:36;;;;;;;8.13;4.93;;;;;;;42.92;22.77;100078.81;5585505;31;33747;-70
2023/07/05 12:51:54;;;;;;;7.75;4.97;;;;;;;40.85;24.45;100061.84;5577639;31;33825;-71
2023/07/05 12:54:57;;;;;;;8.77;4.85;;;;;;;40.23;25.25;100051.06;5586260;31;34006;-72
2023/07/05 12:58:04;;;;;;;6.62;4.72;;;;;;;40.90;24.15;100059.53;5585528;31;33665;-70
2023/07/05 13:01:12;;;;;;;6.93;4.80;;;;;;;39.63;25.88;100047.28;5586133;31;33533;-73
2023/07/05 13:04:18;;;;;;;7.18;4.20;;;;;;;42.92;22.49;100048.09;5567052;31;34881;-72
2023/07/05 13:07:23;;;;;;;6.37;4.10;;;;;;;45.35;20.67;100044.63;5566274;32;34002;-73
2023/07/05 13:10:27;;;;;;;9.20;4.68;;;;;;;44.59;20.60;100040.56;5566264;32;35240;-72
2023/07/05 13:13:34;;;;;;;7.37;4.65;;;;;;;44.59;21.11;100026.56;5566469;31;35184;-71
2023/07/05 13:16:48;;;;;;;8.73;4.62;;;;;;;46.32;20.14;100031.38;5566101;32;34304;-71
2023/07/05 13:20:12;;;;;;;7.82;4.85;;;;;;;47.24;18.87;100042.25;5566140;32;33810;-72
2023/07/05 13:23:28;;;;;;;12.88;4.75;;;;;;;43.37;21.11;100026.28;5565608;32;33737;-70
2023/07/05 13:26:36;;;;;;;8.93;4.70;;;;;;;44.46;20.67;100017.03;5565072;32;33965;-69
2023/07/05 13:29:41;;;;;;;;;;;;;;;44.55;20.05;100016.59;5573927;31;33655;-70
2023/07/05 13:32:48;;;;;;;9.88;5.03;;;;;;;42.83;21.58;100014.19;5585820;31;33920;-70
2023/07/05 13:35:52;;;;;;;8.88;4.97;;;;;;;43.37;20.79;100009.53;5575769;31;34451;-70
2023/07/05 13:38:56;;;;;;;5.25;4.28;;;;;;;45.66;18.95;100009.16;5570796;31;33770;-70
2023/07/05 13:42:03;;;;;;;6.20;4.75;;;;;;;46.97;18.46;100000.09;5571472;31;33859;-71
2023/07/05 13:45:18;;;;;;;6.87;4.60;;;;;;;47.01;18.05;100000.81;5577982;31;33727;-70
2023/07/05 13:48:21;;;;;;;26.00;4.90;;;;;;;44.59;19.58;99981.78;5575428;31;34934;-71
2023/07/05 13:51:32;;;;;;;7.12;4.87;;;;;;;46.53;19.36;99986.25;5578633;31;33629;-69
2023/07/05 13:54:36;;;;;;;7.37;4.82;;;;;;;47.21;17.87;99983.28;5578285;31;33958;-71
2023/07/05 13:58:00;;;;;;;8.18;5.00;;;;;;;47.54;17.41;99983.13;5569839;31;34081;-72
2023/07/05 14:01:12;;;;;;;6.03;4.50;;;;;;;44.11;20.81;99972.38;5573225;31;33938;-70
2023/07/05 14:04:16;;;;;;;7.90;4.80;;;;;;;43.17;20.77;99964.44;5581159;31;33849;-70
2023/07/05 14:07:21;;;;;;;6.93;4.95;;;;;;;43.56;20.31;99953.28;5579517;31;34500;-72
2023/07/05 14:10:25;;;;;;;5.55;4.53;;;;;;;43.68;20.10;99952.06;5587144;31;34777;-70
2023/07/05 14:13:28;;;;;;;7.03;5.07;;;;;;;43.06;21.77;99952.41;5583321;31;33717;-71
2023/07/05 14:16:33;;;;;;;8.80;4.82;;;;;;;44.56;19.79;99942.66;5573539;31;33947;-72